sensor_id;sensor_type;location;lat;lon;timestamp;pressure;altitude;pressure_sealevel;temperature;humidity
62655;BME280;48717;55.556;37.816;2023-02-08T00:01:47;101931.91;;;-7.57;76.35
62655;BME280;48717;55.556;37.816;2023-02-08T00:04:14;101966.13;;;-7.41;76.00
62655;BME280;48717;55.556;37.816;2023-02-08T00:06:42;101952.34;;;-7.50;75.55
62655;BME280;48717;55.556;37.816;2023-02-08T00:09:09;101965.47;;;-7.47;75.77
62655;BME280;48717;55.556;37.816;2023-02-08T00:11:36;101948.13;;;-7.50;75.32
62655;BME280;48717;55.556;37.816;2023-02-08T00:14:04;101942.00;;;-7.43;76.41
62655;BME280;48717;55.556;37.816;2023-02-08T00:16:31;101953.09;;;-7.26;75.69
62655;BME280;48717;55.556;37.816;2023-02-08T00:18:58;101937.16;;;-7.40;75.49
62655;BME280;48717;55.556;37.816;2023-02-08T00:21:25;101958.34;;;-7.34;74.37
62655;BME280;48717;55.556;37.816;2023-02-08T00:23:52;101945.78;;;-7.39;75.60
62655;BME280;48717;55.556;37.816;2023-02-08T00:26:19;101942.41;;;-7.47;74.94
62655;BME280;48717;55.556;37.816;2023-02-08T00:28:47;101930.34;;;-7.64;75.43
62655;BME280;48717;55.556;37.816;2023-02-08T00:31:16;101968.50;;;-7.42;75.32
62655;BME280;48717;55.556;37.816;2023-02-08T00:33:44;101952.16;;;-7.52;76.85
62655;BME280;48717;55.556;37.816;2023-02-08T00:36:11;101963.06;;;-7.45;76.48
62655;BME280;48717;55.556;37.816;2023-02-08T00:38:40;101958.84;;;-7.45;76.58
62655;BME280;48717;55.556;37.816;2023-02-08T00:41:08;101959.47;;;-7.39;75.65
62655;BME280;48717;55.556;37.816;2023-02-08T00:43:35;101953.72;;;-7.45;76.10
62655;BME280;48717;55.556;37.816;2023-02-08T00:46:02;101967.09;;;-7.31;76.55
62655;BME280;48717;55.556;37.816;2023-02-08T00:48:30;101956.09;;;-7.30;75.97
62655;BME280;48717;55.556;37.816;2023-02-08T00:51:06;101937.09;;;-7.32;75.32
62655;BME280;48717;55.556;37.816;2023-02-08T00:53:36;101882.69;;;-7.71;75.08
62655;BME280;48717;55.556;37.816;2023-02-08T00:56:05;101943.44;;;-7.29;75.71
62655;BME280;48717;55.556;37.816;2023-02-08T00:58:33;101945.09;;;-7.29;75.52
62655;BME280;48717;55.556;37.816;2023-02-08T01:01:01;101897.53;;;-7.60;75.66
62655;BME280;48717;55.556;37.816;2023-02-08T01:03:35;101940.22;;;-7.35;74.60
62655;BME280;48717;55.556;37.816;2023-02-08T01:06:04;101940.22;;;-7.35;75.71
62655;BME280;48717;55.556;37.816;2023-02-08T01:08:35;101907.03;;;-7.58;75.12
62655;BME280;48717;55.556;37.816;2023-02-08T01:11:08;101932.00;;;-7.49;75.99
62655;BME280;48717;55.556;37.816;2023-02-08T01:13:37;101941.19;;;-7.67;76.01
62655;BME280;48717;55.556;37.816;2023-02-08T01:16:12;101947.22;;;-7.66;76.27
62655;BME280;48717;55.556;37.816;2023-02-08T01:18:42;101898.25;;;-7.86;76.89
62655;BME280;48717;55.556;37.816;2023-02-08T01:21:12;101905.50;;;-7.81;76.62
62655;BME280;48717;55.556;37.816;2023-02-08T01:23:39;101949.78;;;-7.50;76.61
62655;BME280;48717;55.556;37.816;2023-02-08T01:26:08;101933.16;;;-7.54;77.22
62655;BME280;48717;55.556;37.816;2023-02-08T01:28:37;101934.38;;;-7.50;75.96
62655;BME280;48717;55.556;37.816;2023-02-08T01:31:16;101949.97;;;-7.40;76.34
62655;BME280;48717;55.556;37.816;2023-02-08T01:33:44;101949.97;;;-7.40;76.47
62655;BME280;48717;55.556;37.816;2023-02-08T01:36:12;101944.09;;;-7.39;76.11
62655;BME280;48717;55.556;37.816;2023-02-08T01:38:41;101921.66;;;-7.57;75.78
62655;BME280;48717;55.556;37.816;2023-02-08T01:41:14;101907.88;;;-7.67;75.40
62655;BME280;48717;55.556;37.816;2023-02-08T01:46:36;101921.66;;;-7.57;75.30
62655;BME280;48717;55.556;37.816;2023-02-08T01:49:11;101928.72;;;-7.64;76.22
62655;BME280;48717;55.556;37.816;2023-02-08T01:51:44;101934.31;;;-7.59;76.53
62655;BME280;48717;55.556;37.816;2023-02-08T01:54:13;101935.88;;;-7.52;77.18
62655;BME280;48717;55.556;37.816;2023-02-08T01:56:44;101939.69;;;-7.49;75.69
62655;BME280;48717;55.556;37.816;2023-02-08T01:59:17;101896.56;;;-7.69;75.89
62655;BME280;48717;55.556;37.816;2023-02-08T02:01:48;101912.91;;;-7.60;76.56
62655;BME280;48717;55.556;37.816;2023-02-08T02:04:17;101924.66;;;-7.62;75.46
62655;BME280;48717;55.556;37.816;2023-02-08T02:06:48;101950.09;;;-7.47;75.84
62655;BME280;48717;55.556;37.816;2023-02-08T02:09:22;101947.53;;;-7.47;76.98
62655;BME280;48717;55.556;37.816;2023-02-08T02:11:50;101941.31;;;-7.49;75.85
62655;BME280;48717;55.556;37.816;2023-02-08T02:14:20;101941.00;;;-7.52;75.07
62655;BME280;48717;55.556;37.816;2023-02-08T02:17:10;101901.03;;;-7.75;75.93
62655;BME280;48717;55.556;37.816;2023-02-08T02:22:33;101935.63;;;-7.47;74.47
62655;BME280;48717;55.556;37.816;2023-02-08T02:25:12;101935.78;;;-7.45;76.29
62655;BME280;48717;55.556;37.816;2023-02-08T02:30:44;101939.25;;;-7.44;75.10
62655;BME280;48717;55.556;37.816;2023-02-08T02:33:52;101935.31;;;-7.50;76.31
62655;BME280;48717;55.556;37.816;2023-02-08T02:37:18;101941.66;;;-7.46;76.19
62655;BME280;48717;55.556;37.816;2023-02-08T02:39:34;101938.59;;;-7.51;75.15
62655;BME280;48717;55.556;37.816;2023-02-08T02:48:01;101941.94;;;-7.68;76.40
62655;BME280;48717;55.556;37.816;2023-02-08T02:50:49;101956.66;;;-7.58;75.40
62655;BME280;48717;55.556;37.816;2023-02-08T02:53:35;101943.50;;;-7.61;75.33
62655;BME280;48717;55.556;37.816;2023-02-08T02:56:09;101931.59;;;-7.61;76.22
62655;BME280;48717;55.556;37.816;2023-02-08T02:58:41;101945.13;;;-7.62;76.07
62655;BME280;48717;55.556;37.816;2023-02-08T03:01:10;101909.47;;;-7.76;75.95
62655;BME280;48717;55.556;37.816;2023-02-08T03:03:41;101940.69;;;-7.55;75.29
62655;BME280;48717;55.556;37.816;2023-02-08T03:06:12;101879.97;;;-7.89;75.37
62655;BME280;48717;55.556;37.816;2023-02-08T03:11:40;101905.31;;;-7.67;75.93
62655;BME280;48717;55.556;37.816;2023-02-08T03:14:33;101828.72;;;-8.14;75.67
62655;BME280;48717;55.556;37.816;2023-02-08T03:17:16;101929.59;;;-7.47;76.24
62655;BME280;48717;55.556;37.816;2023-02-08T03:19:56;101954.34;;;-7.39;75.78
62655;BME280;48717;55.556;37.816;2023-02-08T03:25:23;101947.75;;;-7.37;75.13
62655;BME280;48717;55.556;37.816;2023-02-08T03:28:07;101948.25;;;-7.32;75.65
62655;BME280;48717;55.556;37.816;2023-02-08T03:33:23;101857.31;;;-7.77;76.43
62655;BME280;48717;55.556;37.816;2023-02-08T03:38:35;101924.25;;;-7.32;76.66
62655;BME280;48717;55.556;37.816;2023-02-08T03:41:08;101929.06;;;-7.36;75.91
62655;BME280;48717;55.556;37.816;2023-02-08T03:43:40;101940.41;;;-7.34;75.51
62655;BME280;48717;55.556;37.816;2023-02-08T03:46:23;101902.97;;;-7.56;75.56
62655;BME280;48717;55.556;37.816;2023-02-08T03:48:59;101921.16;;;-7.46;75.34
62655;BME280;48717;55.556;37.816;2023-02-08T03:51:36;101927.34;;;-7.44;75.94
62655;BME280;48717;55.556;37.816;2023-02-08T03:54:50;101916.38;;;-7.43;75.21
62655;BME280;48717;55.556;37.816;2023-02-08T03:57:42;101901.53;;;-7.45;75.55
62655;BME280;48717;55.556;37.816;2023-02-08T04:00:16;101917.75;;;-7.38;75.84
62655;BME280;48717;55.556;37.816;2023-02-08T04:03:00;101897.28;;;-7.54;74.93
62655;BME280;48717;55.556;37.816;2023-02-08T04:05:28;101809.53;;;-8.01;75.98
62655;BME280;48717;55.556;37.816;2023-02-08T04:07:55;101905.63;;;-7.48;76.22
62655;BME280;48717;55.556;37.816;2023-02-08T04:10:23;101894.88;;;-7.52;75.54
62655;BME280;48717;55.556;37.816;2023-02-08T04:12:57;101734.47;;;-8.50;76.12
62655;BME280;48717;55.556;37.816;2023-02-08T04:15:27;101834.97;;;-7.87;76.82
62655;BME280;48717;55.556;37.816;2023-02-08T04:17:54;101877.88;;;-7.68;76.26
62655;BME280;48717;55.556;37.816;2023-02-08T04:20:22;101856.09;;;-7.80;76.96
62655;BME280;48717;55.556;37.816;2023-02-08T04:22:50;101853.09;;;-7.76;77.06
62655;BME280;48717;55.556;37.816;2023-02-08T04:25:19;101778.63;;;-8.28;77.32
62655;BME280;48717;55.556;37.816;2023-02-08T04:27:46;101793.47;;;-8.16;77.15
62655;BME280;48717;55.556;37.816;2023-02-08T04:30:14;101853.06;;;-7.85;77.63
62655;BME280;48717;55.556;37.816;2023-02-08T04:33:06;101909.94;;;-7.55;77.80
62655;BME280;48717;55.556;37.816;2023-02-08T04:35:33;101905.66;;;-7.64;77.51
62655;BME280;48717;55.556;37.816;2023-02-08T04:38:00;101859.06;;;-7.84;77.77
62655;BME280;48717;55.556;37.816;2023-02-08T04:40:27;101870.63;;;-7.72;78.07
62655;BME280;48717;55.556;37.816;2023-02-08T04:42:55;101881.50;;;-7.66;78.30
62655;BME280;48717;55.556;37.816;2023-02-08T04:45:22;101855.47;;;-7.87;78.58
62655;BME280;48717;55.556;37.816;2023-02-08T04:47:49;101892.84;;;-7.64;78.56
62655;BME280;48717;55.556;37.816;2023-02-08T04:50:17;101828.97;;;-8.03;78.80
62655;BME280;48717;55.556;37.816;2023-02-08T04:52:44;101863.34;;;-7.76;78.99
62655;BME280;48717;55.556;37.816;2023-02-08T04:55:11;101828.88;;;-7.96;79.44
62655;BME280;48717;55.556;37.816;2023-02-08T04:57:38;101884.66;;;-7.68;78.96
62655;BME280;48717;55.556;37.816;2023-02-08T05:00:06;101885.91;;;-7.65;79.92
62655;BME280;48717;55.556;37.816;2023-02-08T05:02:33;101836.44;;;-7.89;79.32
62655;BME280;48717;55.556;37.816;2023-02-08T05:05:01;101816.06;;;-7.96;80.25
62655;BME280;48717;55.556;37.816;2023-02-08T05:07:29;101805.16;;;-8.02;79.41
62655;BME280;48717;55.556;37.816;2023-02-08T05:09:56;101789.91;;;-8.09;80.34
62655;BME280;48717;55.556;37.816;2023-02-08T05:12:28;101848.31;;;-7.73;80.50
62655;BME280;48717;55.556;37.816;2023-02-08T05:14:57;101752.84;;;-8.29;80.88
62655;BME280;48717;55.556;37.816;2023-02-08T05:17:24;101768.44;;;-8.19;80.77
62655;BME280;48717;55.556;37.816;2023-02-08T05:19:52;101874.38;;;-7.52;80.59
62655;BME280;48717;55.556;37.816;2023-02-08T05:22:19;101819.47;;;-7.79;79.37
62655;BME280;48717;55.556;37.816;2023-02-08T05:24:46;101862.13;;;-7.55;79.90
62655;BME280;48717;55.556;37.816;2023-02-08T05:27:17;101875.34;;;-7.43;80.45
62655;BME280;48717;55.556;37.816;2023-02-08T05:29:44;101811.19;;;-7.77;79.44
62655;BME280;48717;55.556;37.816;2023-02-08T05:32:11;101777.66;;;-7.96;79.43
62655;BME280;48717;55.556;37.816;2023-02-08T05:34:38;101846.03;;;-7.54;79.84
62655;BME280;48717;55.556;37.816;2023-02-08T05:37:24;101763.34;;;-7.94;80.69
62655;BME280;48717;55.556;37.816;2023-02-08T05:39:52;101874.91;;;-7.39;80.13
62655;BME280;48717;55.556;37.816;2023-02-08T05:42:19;101875.97;;;-7.37;81.00
62655;BME280;48717;55.556;37.816;2023-02-08T05:44:46;101867.88;;;-7.32;80.21
62655;BME280;48717;55.556;37.816;2023-02-08T05:47:13;101870.88;;;-7.28;80.29
62655;BME280;48717;55.556;37.816;2023-02-08T05:49:40;101862.31;;;-7.28;80.68
62655;BME280;48717;55.556;37.816;2023-02-08T05:52:07;101840.69;;;-7.39;80.08
62655;BME280;48717;55.556;37.816;2023-02-08T05:54:34;101828.34;;;-7.35;79.19
62655;BME280;48717;55.556;37.816;2023-02-08T05:57:01;101820.44;;;-7.45;79.23
62655;BME280;48717;55.556;37.816;2023-02-08T05:59:28;101831.03;;;-7.42;79.49
62655;BME280;48717;55.556;37.816;2023-02-08T06:01:55;101867.47;;;-7.19;79.73
62655;BME280;48717;55.556;37.816;2023-02-08T06:04:22;101866.16;;;-7.16;79.81
62655;BME280;48717;55.556;37.816;2023-02-08T06:06:49;101865.41;;;-7.15;79.60
62655;BME280;48717;55.556;37.816;2023-02-08T06:09:17;101861.03;;;-7.16;79.05
62655;BME280;48717;55.556;37.816;2023-02-08T06:11:44;101837.13;;;-7.24;79.52
62655;BME280;48717;55.556;37.816;2023-02-08T06:14:11;101849.59;;;-7.11;78.82
62655;BME280;48717;55.556;37.816;2023-02-08T06:16:38;101811.38;;;-7.25;79.89
62655;BME280;48717;55.556;37.816;2023-02-08T06:19:05;101846.88;;;-7.03;79.69
62655;BME280;48717;55.556;37.816;2023-02-08T06:21:32;101838.03;;;-6.98;79.65
62655;BME280;48717;55.556;37.816;2023-02-08T06:23:59;101845.72;;;-6.98;78.87
62655;BME280;48717;55.556;37.816;2023-02-08T06:26:26;101835.28;;;-7.00;78.47
62655;BME280;48717;55.556;37.816;2023-02-08T06:28:53;101844.53;;;-6.93;78.59
62655;BME280;48717;55.556;37.816;2023-02-08T06:31:20;101806.75;;;-7.12;78.56
62655;BME280;48717;55.556;37.816;2023-02-08T06:33:48;101835.47;;;-6.98;78.79
62655;BME280;48717;55.556;37.816;2023-02-08T06:36:15;101816.84;;;-7.04;78.85
62655;BME280;48717;55.556;37.816;2023-02-08T06:38:42;101821.88;;;-6.97;78.91
62655;BME280;48717;55.556;37.816;2023-02-08T06:41:09;101779.84;;;-7.24;78.42
62655;BME280;48717;55.556;37.816;2023-02-08T06:43:36;101832.16;;;-6.88;78.09
62655;BME280;48717;55.556;37.816;2023-02-08T06:46:03;101830.06;;;-6.84;78.10
62655;BME280;48717;55.556;37.816;2023-02-08T06:48:35;101836.69;;;-6.86;77.34
62655;BME280;48717;55.556;37.816;2023-02-08T06:51:03;101817.34;;;-6.91;77.54
62655;BME280;48717;55.556;37.816;2023-02-08T06:53:30;101829.78;;;-6.78;77.60
62655;BME280;48717;55.556;37.816;2023-02-08T06:55:57;101805.28;;;-6.92;77.73
62655;BME280;48717;55.556;37.816;2023-02-08T06:58:24;101806.06;;;-6.93;77.85
62655;BME280;48717;55.556;37.816;2023-02-08T07:00:51;101796.56;;;-6.94;77.73
62655;BME280;48717;55.556;37.816;2023-02-08T07:03:18;101807.09;;;-6.91;77.77
62655;BME280;48717;55.556;37.816;2023-02-08T07:05:45;101833.09;;;-6.79;77.23
62655;BME280;48717;55.556;37.816;2023-02-08T07:08:30;101835.09;;;-6.76;77.32
62655;BME280;48717;55.556;37.816;2023-02-08T07:10:57;101817.41;;;-6.82;77.34
62655;BME280;48717;55.556;37.816;2023-02-08T07:13:24;101794.13;;;-6.92;77.93
62655;BME280;48717;55.556;37.816;2023-02-08T07:15:51;101815.00;;;-6.80;77.53
62655;BME280;48717;55.556;37.816;2023-02-08T07:18:18;101812.13;;;-6.84;77.23
62655;BME280;48717;55.556;37.816;2023-02-08T07:20:47;101790.94;;;-6.90;77.85
62655;BME280;48717;55.556;37.816;2023-02-08T07:23:14;101777.50;;;-6.96;77.00
62655;BME280;48717;55.556;37.816;2023-02-08T07:25:41;101823.47;;;-6.64;77.41
62655;BME280;48717;55.556;37.816;2023-02-08T07:28:08;101831.16;;;-6.64;77.02
62655;BME280;48717;55.556;37.816;2023-02-08T07:30:35;101802.16;;;-6.80;76.97
62655;BME280;48717;55.556;37.816;2023-02-08T07:33:03;101833.44;;;-6.58;77.53
62655;BME280;48717;55.556;37.816;2023-02-08T07:35:33;101832.56;;;-6.59;76.88
62655;BME280;48717;55.556;37.816;2023-02-08T07:38:00;101788.59;;;-6.79;76.46
62655;BME280;48717;55.556;37.816;2023-02-08T07:40:27;101805.81;;;-6.61;76.79
62655;BME280;48717;55.556;37.816;2023-02-08T07:42:54;101809.91;;;-6.54;77.02
62655;BME280;48717;55.556;37.816;2023-02-08T07:45:36;101804.47;;;-6.48;76.67
62655;BME280;48717;55.556;37.816;2023-02-08T07:48:04;101821.38;;;-6.50;77.43
62655;BME280;48717;55.556;37.816;2023-02-08T07:50:31;101780.59;;;-6.65;76.94
62655;BME280;48717;55.556;37.816;2023-02-08T07:52:58;101815.34;;;-6.42;77.08
62655;BME280;48717;55.556;37.816;2023-02-08T07:55:25;101807.22;;;-6.38;76.80
62655;BME280;48717;55.556;37.816;2023-02-08T07:57:54;101776.09;;;-6.50;76.92
62655;BME280;48717;55.556;37.816;2023-02-08T08:00:22;101801.47;;;-6.35;76.78
62655;BME280;48717;55.556;37.816;2023-02-08T08:02:49;101782.75;;;-6.34;77.39
62655;BME280;48717;55.556;37.816;2023-02-08T08:05:17;101798.47;;;-6.22;77.08
62655;BME280;48717;55.556;37.816;2023-02-08T08:07:44;101801.19;;;-6.21;76.57
62655;BME280;48717;55.556;37.816;2023-02-08T08:10:11;101751.94;;;-6.43;76.50
62655;BME280;48717;55.556;37.816;2023-02-08T08:12:38;101797.25;;;-6.17;76.60
62655;BME280;48717;55.556;37.816;2023-02-08T08:15:06;101761.16;;;-6.27;76.84
62655;BME280;48717;55.556;37.816;2023-02-08T08:17:33;101771.25;;;-6.20;76.90
62655;BME280;48717;55.556;37.816;2023-02-08T08:20:00;101796.44;;;-5.98;76.47
62655;BME280;48717;55.556;37.816;2023-02-08T08:22:28;101776.06;;;-6.06;76.42
62655;BME280;48717;55.556;37.816;2023-02-08T08:24:55;101783.16;;;-5.94;75.69
62655;BME280;48717;55.556;37.816;2023-02-08T08:27:23;101772.28;;;-6.00;75.88
62655;BME280;48717;55.556;37.816;2023-02-08T08:29:50;101777.84;;;-5.96;75.93
62655;BME280;48717;55.556;37.816;2023-02-08T08:32:17;101774.53;;;-5.86;75.59
62655;BME280;48717;55.556;37.816;2023-02-08T08:34:44;101729.84;;;-6.06;75.43
62655;BME280;48717;55.556;37.816;2023-02-08T08:37:11;101763.63;;;-5.74;75.18
62655;BME280;48717;55.556;37.816;2023-02-08T08:39:39;101772.06;;;-5.67;75.20
62655;BME280;48717;55.556;37.816;2023-02-08T08:42:06;101730.97;;;-5.76;75.01
62655;BME280;48717;55.556;37.816;2023-02-08T08:44:33;101750.44;;;-5.60;75.04
62655;BME280;48717;55.556;37.816;2023-02-08T08:47:00;101756.47;;;-5.59;74.95
62655;BME280;48717;55.556;37.816;2023-02-08T08:49:28;101749.66;;;-5.59;74.76
62655;BME280;48717;55.556;37.816;2023-02-08T08:51:55;101757.06;;;-5.62;74.64
62655;BME280;48717;55.556;37.816;2023-02-08T08:54:23;101752.84;;;-5.61;75.08
62655;BME280;48717;55.556;37.816;2023-02-08T08:56:50;101727.34;;;-5.78;75.25
62655;BME280;48717;55.556;37.816;2023-02-08T08:59:17;101708.94;;;-5.91;75.26
62655;BME280;48717;55.556;37.816;2023-02-08T09:01:45;101751.81;;;-5.72;74.67
62655;BME280;48717;55.556;37.816;2023-02-08T09:04:12;101755.13;;;-5.65;74.90
62655;BME280;48717;55.556;37.816;2023-02-08T09:06:39;101759.03;;;-5.59;74.89
62655;BME280;48717;55.556;37.816;2023-02-08T09:09:07;101707.72;;;-5.86;75.17
62655;BME280;48717;55.556;37.816;2023-02-08T09:11:34;101754.03;;;-5.58;75.44
62655;BME280;48717;55.556;37.816;2023-02-08T09:14:02;101743.00;;;-5.57;75.26
62655;BME280;48717;55.556;37.816;2023-02-08T09:16:30;101750.84;;;-5.55;74.97
62655;BME280;48717;55.556;37.816;2023-02-08T09:19:05;101743.00;;;-5.57;75.68
62655;BME280;48717;55.556;37.816;2023-02-08T09:21:33;101739.69;;;-5.56;74.97
62655;BME280;48717;55.556;37.816;2023-02-08T09:24:01;101728.16;;;-5.51;75.74
62655;BME280;48717;55.556;37.816;2023-02-08T09:26:28;101729.34;;;-5.47;75.11
62655;BME280;48717;55.556;37.816;2023-02-08T09:28:55;101726.00;;;-5.46;75.57
62655;BME280;48717;55.556;37.816;2023-02-08T09:31:25;101704.44;;;-5.57;75.75
62655;BME280;48717;55.556;37.816;2023-02-08T09:33:55;101717.72;;;-5.43;75.93
62655;BME280;48717;55.556;37.816;2023-02-08T09:36:24;101708.47;;;-5.41;75.68
62655;BME280;48717;55.556;37.816;2023-02-08T09:38:57;101711.91;;;-5.32;76.04
62655;BME280;48717;55.556;37.816;2023-02-08T09:47:19;101702.84;;;-5.09;74.50
62655;BME280;48717;55.556;37.816;2023-02-08T09:52:51;101688.88;;;-5.02;75.15
62655;BME280;48717;55.556;37.816;2023-02-08T09:57:59;101684.22;;;-4.87;73.94
62655;BME280;48717;55.556;37.816;2023-02-08T10:00:41;101656.19;;;-5.03;73.78
62655;BME280;48717;55.556;37.816;2023-02-08T10:03:22;101682.97;;;-4.82;74.23
62655;BME280;48717;55.556;37.816;2023-02-08T10:05:52;101667.28;;;-4.85;74.32
62655;BME280;48717;55.556;37.816;2023-02-08T10:08:19;101673.25;;;-4.76;73.89
62655;BME280;48717;55.556;37.816;2023-02-08T10:10:53;101586.94;;;-5.30;73.76
62655;BME280;48717;55.556;37.816;2023-02-08T10:30:41;101634.56;;;-4.86;74.76
62655;BME280;48717;55.556;37.816;2023-02-08T10:33:23;101672.91;;;-4.70;74.24
62655;BME280;48717;55.556;37.816;2023-02-08T10:35:52;101668.38;;;-4.73;74.14
62655;BME280;48717;55.556;37.816;2023-02-08T10:40:49;101589.25;;;-4.94;74.21
62655;BME280;48717;55.556;37.816;2023-02-08T10:43:36;101640.66;;;-4.56;74.67
62655;BME280;48717;55.556;37.816;2023-02-08T10:46:16;101633.41;;;-4.41;74.77
62655;BME280;48717;55.556;37.816;2023-02-08T10:49:00;101634.00;;;-4.24;73.99
62655;BME280;48717;55.556;37.816;2023-02-08T10:51:30;101595.41;;;-4.14;72.84
62655;BME280;48717;55.556;37.816;2023-02-08T10:53:57;101599.97;;;-3.80;71.15
62655;BME280;48717;55.556;37.816;2023-02-08T10:59:16;101580.91;;;-3.09;68.20
62655;BME280;48717;55.556;37.816;2023-02-08T11:01:45;101585.69;;;-2.60;66.25
62655;BME280;48717;55.556;37.816;2023-02-08T11:04:14;101594.50;;;-2.03;64.99
62655;BME280;48717;55.556;37.816;2023-02-08T11:06:43;101605.25;;;-1.64;62.18
62655;BME280;48717;55.556;37.816;2023-02-08T11:09:28;101596.69;;;-1.41;60.26
62655;BME280;48717;55.556;37.816;2023-02-08T11:11:57;101582.59;;;-1.45;59.90
62655;BME280;48717;55.556;37.816;2023-02-08T11:14:29;101587.63;;;-1.58;59.82
62655;BME280;48717;55.556;37.816;2023-02-08T11:17:27;101592.59;;;-1.49;60.48
62655;BME280;48717;55.556;37.816;2023-02-08T11:19:57;101604.81;;;-1.59;60.46
62655;BME280;48717;55.556;37.816;2023-02-08T11:22:28;101606.06;;;-1.88;61.10
62655;BME280;48717;55.556;37.816;2023-02-08T11:25:05;101585.78;;;-2.49;62.85
62655;BME280;48717;55.556;37.816;2023-02-08T11:27:35;101599.44;;;-2.72;64.62
62655;BME280;48717;55.556;37.816;2023-02-08T11:32:36;101609.69;;;-3.05;66.87
62655;BME280;48717;55.556;37.816;2023-02-08T11:37:53;101572.41;;;-3.19;66.92
62655;BME280;48717;55.556;37.816;2023-02-08T11:40:36;101581.94;;;-2.97;67.27
62655;BME280;48717;55.556;37.816;2023-02-08T11:43:04;101583.88;;;-2.84;67.00
62655;BME280;48717;55.556;37.816;2023-02-08T11:45:34;101590.56;;;-2.86;66.64
62655;BME280;48717;55.556;37.816;2023-02-08T11:48:02;101561.31;;;-3.18;66.99
62655;BME280;48717;55.556;37.816;2023-02-08T11:50:33;101591.00;;;-3.12;67.96
62655;BME280;48717;55.556;37.816;2023-02-08T11:53:04;101594.09;;;-3.17;67.62
62655;BME280;48717;55.556;37.816;2023-02-08T11:55:33;101571.63;;;-3.18;67.84
62655;BME280;48717;55.556;37.816;2023-02-08T12:00:34;101568.91;;;-2.88;67.08
62655;BME280;48717;55.556;37.816;2023-02-08T12:03:12;101580.09;;;-2.77;66.73
62655;BME280;48717;55.556;37.816;2023-02-08T12:05:52;101571.25;;;-2.69;66.77
62655;BME280;48717;55.556;37.816;2023-02-08T12:09:09;101573.06;;;-2.57;66.81
62655;BME280;48717;55.556;37.816;2023-02-08T12:11:39;101560.25;;;-2.23;65.59
62655;BME280;48717;55.556;37.816;2023-02-08T12:25:50;101520.25;;;-1.60;61.27
62655;BME280;48717;55.556;37.816;2023-02-08T12:28:31;101550.84;;;-1.66;60.13
62655;BME280;48717;55.556;37.816;2023-02-08T12:31:24;101551.94;;;-1.97;61.43
62655;BME280;48717;55.556;37.816;2023-02-08T12:34:04;101543.53;;;-2.16;62.59
62655;BME280;48717;55.556;37.816;2023-02-08T12:39:34;101537.03;;;-2.33;63.95
62655;BME280;48717;55.556;37.816;2023-02-08T12:42:56;101524.44;;;-2.51;64.85
62655;BME280;48717;55.556;37.816;2023-02-08T12:45:42;101527.63;;;-2.66;65.36
62655;BME280;48717;55.556;37.816;2023-02-08T12:55:59;101492.25;;;-2.99;66.48
62655;BME280;48717;55.556;37.816;2023-02-08T12:58:39;101503.47;;;-2.99;67.35
62655;BME280;48717;55.556;37.816;2023-02-08T13:01:15;101515.38;;;-3.11;67.69
62655;BME280;48717;55.556;37.816;2023-02-08T13:03:49;101496.78;;;-3.07;68.24
62655;BME280;48717;55.556;37.816;2023-02-08T13:06:22;101514.88;;;-3.28;67.51
62655;BME280;48717;55.556;37.816;2023-02-08T13:09:16;101505.63;;;-3.47;69.13
62655;BME280;48717;55.556;37.816;2023-02-08T13:11:53;101512.84;;;-3.43;68.68
62655;BME280;48717;55.556;37.816;2023-02-08T13:14:32;101501.78;;;-3.52;69.68
62655;BME280;48717;55.556;37.816;2023-02-08T13:17:11;101496.50;;;-3.54;69.37
62655;BME280;48717;55.556;37.816;2023-02-08T13:22:26;101499.19;;;-3.52;68.94
62655;BME280;48717;55.556;37.816;2023-02-08T13:24:53;101488.88;;;-3.62;69.53
62655;BME280;48717;55.556;37.816;2023-02-08T13:27:33;101493.78;;;-3.55;69.62
62655;BME280;48717;55.556;37.816;2023-02-08T13:30:01;101477.38;;;-3.56;70.56
62655;BME280;48717;55.556;37.816;2023-02-08T13:32:38;101478.31;;;-3.55;70.21
62655;BME280;48717;55.556;37.816;2023-02-08T13:35:14;101483.44;;;-3.45;69.70
62655;BME280;48717;55.556;37.816;2023-02-08T13:37:49;101479.59;;;-3.50;69.81
62655;BME280;48717;55.556;37.816;2023-02-08T13:40:21;101480.38;;;-3.51;70.96
62655;BME280;48717;55.556;37.816;2023-02-08T13:43:15;101470.84;;;-3.52;71.18
62655;BME280;48717;55.556;37.816;2023-02-08T13:46:01;101454.06;;;-3.68;71.31
62655;BME280;48717;55.556;37.816;2023-02-08T13:48:40;101466.44;;;-3.53;71.53
62655;BME280;48717;55.556;37.816;2023-02-08T13:59:08;101469.28;;;-3.71;71.26
62655;BME280;48717;55.556;37.816;2023-02-08T14:04:43;101444.28;;;-3.72;71.99
62655;BME280;48717;55.556;37.816;2023-02-08T14:07:13;101465.41;;;-3.76;71.94
62655;BME280;48717;55.556;37.816;2023-02-08T14:10:17;101457.81;;;-3.74;71.83
62655;BME280;48717;55.556;37.816;2023-02-08T14:12:52;101460.25;;;-3.76;72.31
62655;BME280;48717;55.556;37.816;2023-02-08T14:17:50;101431.81;;;-3.98;72.21
62655;BME280;48717;55.556;37.816;2023-02-08T14:23:04;101452.03;;;-3.92;72.74
62655;BME280;48717;55.556;37.816;2023-02-08T14:25:42;101468.00;;;-3.86;72.93
62655;BME280;48717;55.556;37.816;2023-02-08T14:28:43;101485.53;;;-3.72;73.37
62655;BME280;48717;55.556;37.816;2023-02-08T14:31:20;101471.84;;;-3.71;73.06
62655;BME280;48717;55.556;37.816;2023-02-08T14:33:54;101473.66;;;-3.80;73.43
62655;BME280;48717;55.556;37.816;2023-02-08T14:36:33;101469.03;;;-3.74;72.87
62655;BME280;48717;55.556;37.816;2023-02-08T14:39:22;101464.41;;;-3.78;72.24
62655;BME280;48717;55.556;37.816;2023-02-08T14:41:57;101419.81;;;-3.98;73.50
62655;BME280;48717;55.556;37.816;2023-02-08T14:44:56;101456.94;;;-3.75;73.16
62655;BME280;48717;55.556;37.816;2023-02-08T14:50:40;101461.81;;;-3.78;73.51
62655;BME280;48717;55.556;37.816;2023-02-08T14:55:40;101462.59;;;-3.89;73.77
62655;BME280;48717;55.556;37.816;2023-02-08T14:58:15;101476.91;;;-3.93;73.47
62655;BME280;48717;55.556;37.816;2023-02-08T15:00:50;101454.88;;;-4.10;74.20